Aérodrome :
LOGIN :

S'inscrire | Disclaimer

   EN    FR    IT 

 










Légende :    VFR   VFR Marginal   IFR   IFR Intensif   IFR Très Intensif
Visi : 
Plafond : 
>= 8 km
>= 3000ft
5 à 8 km
1000 à 3000 ft
1500m à 5 km
500 à 1000 ft
800 à 1500m
200 à 500 ft
< 800m
< 200 ft
Symboles :   Orages  Brouillard  Fortes neiges  Fortes précipitations  Vent > 20 kt
SIGMETs :   Divers  Orages  Givrage  Turbulence  Onde Orograph.  Cendres Volcan.






- Altitude de l'aérodrome : 466 ft


LHPA - Pápa

DERNIER METAR :
  • 211015Z 30006KT 250V360 9999 SCT040 27/17 Q1010 NOSIG RMK BLU

METARs EXPIRÉS :
  • 210945Z 34005KT 250V050 9999 FEW040 27/17 Q1010 NOSIG RMK BLU
  • 210915Z VRB02KT 9999 FEW040 27/17 Q1010 NOSIG RMK BLU
  • 210845Z VRB02KT 9999 FEW036 26/17 Q1010 NOSIG RMK BLU
  • 210815Z VRB04KT 9999 FEW036 25/16 Q1010 NOSIG RMK BLU
  • 210745Z 24005KT 180V290 9999 FEW030 24/17 Q1010 NOSIG RMK BLU
  • 210715Z 21004KT 160V240 CAVOK 23/18 Q1010 NOSIG RMK BLU
  • 210645Z 21004KT 170V240 CAVOK 22/18 Q1010 NOSIG RMK BLU
  • 210615Z 23003KT 180V270 9999 FEW020 SCT083 21/18 Q1010 NOSIG RMK BLU
  • 210545Z 21004KT CAVOK 20/18 Q1010 NOSIG RMK BLU

TAF TAF LHPA
Valide du 21 à 06h jusqu'au 22 à 06h UTC


210515Z 2106/2206 VRB03KT CAVOK



MET'MAP, la Météo Aéronautique d'un coup d'oeil ! - Copyright ORBIFLY Décembre 2007 - Disclaimer

ORBIFLY MET'MAP TEAM :

Programmation & Développement : Alexandra Zaïnal
Sur une idée originale de : Baudouin d'Aumeries
Soutien technique & logistique : Manuel Goepfert
Assistance : Marc-Olivier Méhu




SOURCES & CREDITS :

   NOAA